createdAt,value
2023-04-18T00:01:08.112Z,66.77
2023-04-18T00:03:36.539Z,66.45
2023-04-18T00:06:03.605Z,66.83
2023-04-18T00:08:30.073Z,66.59
2023-04-18T00:10:57.396Z,66.75
2023-04-18T00:13:23.743Z,67.04
2023-04-18T00:15:50.269Z,66.70
2023-04-18T00:18:17.232Z,66.82
2023-04-18T00:20:43.815Z,66.68
2023-04-18T00:23:13.927Z,66.62
2023-04-18T00:25:40.776Z,66.52
2023-04-18T00:28:07.088Z,66.36
2023-04-18T00:30:33.722Z,66.39
2023-04-18T00:33:00.283Z,66.42
2023-04-18T00:35:26.760Z,65.95
2023-04-18T00:37:53.369Z,66.08
2023-04-18T00:40:19.818Z,66.15
2023-04-18T00:42:46.158Z,66.04
2023-04-18T00:45:12.583Z,66.14
2023-04-18T00:47:39.058Z,66.40
2023-04-18T00:50:06.034Z,66.65
2023-04-18T00:52:35.822Z,66.34
2023-04-18T00:55:06.554Z,65.94
2023-04-18T00:57:33.566Z,65.82
2023-04-18T01:00:01.193Z,65.66
2023-04-18T01:02:30.569Z,65.86
2023-04-18T01:04:58.645Z,65.72
2023-04-18T01:07:26.531Z,66.02
2023-04-18T01:09:53.874Z,65.89
2023-04-18T01:12:20.293Z,65.77
2023-04-18T01:14:46.659Z,65.53
2023-04-18T01:17:13.344Z,65.95
2023-04-18T01:19:40.434Z,65.94
2023-04-18T01:22:07.044Z,65.66
2023-04-18T01:24:34.009Z,65.53
2023-04-18T01:27:02.869Z,65.28
2023-04-18T01:29:29.250Z,65.30
2023-04-18T01:31:55.901Z,65.26
2023-04-18T01:34:22.324Z,65.20
2023-04-18T01:36:49.006Z,65.38
2023-04-18T01:39:15.532Z,65.18
2023-04-18T01:41:42.087Z,64.94
2023-04-18T01:44:08.550Z,64.75
2023-04-18T01:46:36.137Z,64.84
2023-04-18T01:49:03.717Z,64.79
2023-04-18T01:51:31.231Z,64.94
2023-04-18T01:53:57.700Z,65.17
2023-04-18T01:56:24.040Z,65.37
2023-04-18T01:58:50.452Z,65.26
2023-04-18T02:01:16.982Z,65.18
2023-04-18T02:03:43.580Z,65.68
2023-04-18T02:06:10.259Z,65.97
2023-04-18T02:08:36.771Z,65.67
2023-04-18T02:11:03.515Z,65.79
2023-04-18T02:13:29.861Z,65.74
2023-04-18T02:15:56.349Z,66.32
2023-04-18T02:18:24.709Z,66.17
2023-04-18T02:20:51.958Z,66.76
2023-04-18T02:23:18.911Z,66.65
2023-04-18T02:25:45.302Z,66.43
2023-04-18T02:28:11.682Z,67.21
2023-04-18T02:30:38.105Z,66.95
2023-04-18T02:33:04.526Z,67.56
2023-04-18T02:35:31.676Z,67.73
2023-04-18T02:37:58.300Z,67.81
2023-04-18T02:40:24.725Z,67.86
2023-04-18T02:42:51.167Z,68.25
2023-04-18T02:45:17.832Z,68.46
2023-04-18T02:47:54.720Z,68.70
2023-04-18T02:50:22.963Z,68.81
2023-04-18T02:52:49.329Z,68.52
2023-04-18T02:55:16.131Z,68.51
2023-04-18T02:57:42.635Z,69.02
2023-04-18T03:00:09.456Z,69.08
2023-04-18T03:02:35.993Z,69.38
2023-04-18T03:05:02.802Z,69.19
2023-04-18T03:07:30.694Z,68.95
2023-04-18T03:09:57.116Z,68.82
2023-04-18T03:12:23.496Z,69.26
2023-04-18T03:14:49.929Z,69.00
2023-04-18T03:17:16.382Z,68.91
2023-04-18T03:19:42.795Z,68.88
2023-04-18T03:22:09.900Z,69.17
2023-04-18T03:24:36.213Z,69.61
2023-04-18T03:27:02.619Z,69.65
2023-04-18T03:29:29.057Z,69.74
2023-04-18T03:31:55.356Z,69.79
2023-04-18T03:34:21.862Z,69.84
2023-04-18T03:36:48.382Z,69.65
2023-04-18T03:39:14.987Z,69.93
2023-04-18T03:41:41.565Z,69.94
2023-04-18T03:44:08.849Z,70.14
2023-04-18T03:46:35.573Z,70.23
2023-04-18T03:49:02.244Z,70.91
2023-04-18T03:51:33.799Z,71.65
2023-04-18T03:54:00.248Z,71.76
2023-04-18T03:56:26.954Z,72.36
2023-04-18T03:58:53.355Z,72.56
2023-04-18T04:01:19.723Z,72.54
2023-04-18T04:03:46.483Z,72.71
2023-04-18T04:06:13.091Z,73.04
2023-04-18T04:08:39.445Z,73.40
2023-04-18T04:11:05.909Z,73.10
2023-04-18T04:13:32.248Z,73.67
2023-04-18T04:15:58.646Z,73.27
2023-04-18T04:18:31.022Z,73.75
2023-04-18T04:20:59.123Z,73.37
2023-04-18T04:23:26.772Z,73.76
2023-04-18T04:25:54.313Z,74.17
2023-04-18T04:28:23.720Z,74.03
2023-04-18T04:30:50.827Z,74.25
2023-04-18T04:33:19.465Z,74.01
2023-04-18T04:35:49.714Z,74.21
2023-04-18T04:38:16.913Z,74.45
2023-04-18T04:40:43.418Z,74.42
2023-04-18T04:43:16.420Z,74.40
2023-04-18T04:45:51.485Z,74.06
2023-04-18T04:48:19.806Z,74.12
2023-04-18T04:50:57.947Z,74.31
2023-04-18T04:53:26.216Z,74.38
2023-04-18T04:55:52.612Z,75.11
2023-04-18T04:58:19.930Z,75.30
2023-04-18T05:00:46.482Z,75.25
2023-04-18T05:03:13.043Z,75.31
2023-04-18T05:05:39.689Z,75.54
2023-04-18T05:08:06.238Z,75.80
2023-04-18T05:10:33.095Z,76.27
2023-04-18T05:12:59.514Z,76.56
2023-04-18T05:15:25.895Z,76.38
2023-04-18T05:17:52.248Z,77.21
2023-04-18T05:20:18.698Z,76.85
2023-04-18T05:22:45.083Z,77.39
2023-04-18T05:25:12.474Z,77.14
2023-04-18T05:27:39.390Z,77.79
2023-04-18T05:30:06.488Z,77.77
2023-04-18T05:32:32.886Z,77.97
2023-04-18T05:35:00.452Z,78.20
2023-04-18T05:37:26.806Z,78.54
2023-04-18T05:39:53.186Z,78.57
2023-04-18T05:42:19.686Z,78.58
2023-04-18T05:44:46.038Z,78.65
2023-04-18T05:47:12.428Z,78.55
2023-04-18T05:49:38.852Z,78.81
2023-04-18T05:52:05.448Z,78.84
2023-04-18T05:54:31.771Z,78.97
2023-04-18T05:56:58.416Z,79.00
2023-04-18T05:59:26.749Z,79.06
2023-04-18T06:01:53.425Z,78.97
2023-04-18T06:04:21.145Z,78.52
2023-04-18T06:06:47.863Z,78.68
2023-04-18T06:09:14.280Z,78.13
2023-04-18T06:11:40.736Z,77.49
2023-04-18T06:14:07.714Z,77.42
2023-04-18T06:16:35.903Z,77.40
2023-04-18T06:19:03.120Z,77.23
2023-04-18T06:21:29.637Z,76.82
2023-04-18T06:23:55.989Z,76.72
2023-04-18T06:26:22.449Z,76.17
2023-04-18T06:28:48.834Z,75.72
2023-04-18T06:31:15.206Z,75.50
2023-04-18T06:33:41.857Z,75.32
2023-04-18T06:36:08.850Z,75.33
2023-04-18T06:38:35.328Z,74.82
2023-04-18T06:41:01.812Z,74.73
2023-04-18T06:43:28.214Z,74.60
2023-04-18T06:45:55.694Z,74.01
2023-04-18T06:48:22.644Z,73.36
2023-04-18T06:50:48.979Z,73.42
2023-04-18T06:53:15.389Z,73.01
2023-04-18T06:55:41.922Z,72.04
2023-04-18T06:58:09.936Z,71.54
2023-04-18T07:00:36.404Z,70.96
2023-04-18T07:03:11.473Z,70.46
2023-04-18T07:05:38.888Z,70.65
2023-04-18T07:08:05.374Z,70.38
2023-04-18T07:10:32.171Z,70.02
2023-04-18T07:12:58.569Z,69.99
2023-04-18T07:15:24.975Z,68.93
2023-04-18T07:17:51.542Z,68.87
2023-04-18T07:20:17.938Z,69.76
2023-04-18T07:22:44.376Z,70.03
2023-04-18T07:25:10.870Z,69.94
2023-04-18T07:27:37.537Z,70.55
2023-04-18T07:30:04.842Z,70.28
2023-04-18T07:32:31.443Z,70.23
2023-04-18T07:34:57.843Z,70.46
2023-04-18T07:37:24.629Z,70.82
2023-04-18T07:39:51.436Z,70.40
2023-04-18T07:42:17.953Z,70.94
2023-04-18T07:44:44.639Z,70.79
2023-04-18T07:47:11.085Z,70.94
2023-04-18T07:49:38.208Z,70.35
2023-04-18T07:52:04.914Z,70.72
2023-04-18T07:54:31.323Z,70.65
2023-04-18T07:56:59.757Z,70.73
2023-04-18T07:59:26.292Z,70.00
2023-04-18T08:01:52.886Z,69.93
2023-04-18T08:04:19.381Z,70.37
2023-04-18T08:06:45.960Z,70.42
2023-04-18T08:09:12.496Z,70.51
2023-04-18T08:11:39.223Z,70.31
2023-04-18T08:14:05.760Z,70.80
2023-04-18T08:16:32.253Z,70.70
2023-04-18T08:18:58.620Z,70.50
2023-04-18T08:21:26.687Z,70.24
2023-04-18T08:23:53.275Z,69.64
2023-04-18T08:26:19.789Z,69.37
2023-04-18T08:28:46.650Z,69.29
2023-04-18T08:31:14.573Z,69.25
2023-04-18T08:33:41.628Z,68.71
2023-04-18T08:36:08.217Z,68.17
2023-04-18T08:38:34.751Z,68.33
2023-04-18T08:41:01.282Z,67.77
2023-04-18T08:43:30.048Z,67.66
2023-04-18T08:45:59.514Z,66.79
2023-04-18T08:48:28.246Z,67.30
2023-04-18T08:50:58.694Z,66.63
2023-04-18T08:53:26.746Z,66.07
2023-04-18T08:55:57.053Z,65.38
2023-04-18T08:58:24.392Z,65.06
2023-04-18T09:00:52.309Z,65.13
2023-04-18T09:03:39.619Z,65.50
2023-04-18T09:06:19.448Z,65.14
2023-04-18T09:08:59.032Z,64.95
2023-04-18T09:11:28.798Z,65.52
2023-04-18T09:13:58.843Z,65.88
2023-04-18T09:16:27.472Z,65.24
2023-04-18T09:19:11.074Z,65.33
2023-04-18T09:21:46.200Z,65.74
2023-04-18T09:24:21.136Z,65.30
2023-04-18T09:26:49.715Z,65.15
2023-04-18T09:29:18.423Z,64.58
2023-04-18T09:31:56.055Z,64.87
2023-04-18T09:34:26.264Z,64.50
2023-04-18T09:37:07.776Z,64.31
2023-04-18T09:39:34.446Z,64.10
2023-04-18T09:42:01.312Z,63.05
2023-04-18T09:44:27.953Z,63.15
2023-04-18T09:46:54.380Z,62.28
2023-04-18T09:49:20.856Z,62.07
2023-04-18T09:51:50.402Z,61.68
2023-04-18T09:54:18.296Z,60.90
2023-04-18T09:56:45.797Z,61.36
2023-04-18T09:59:14.923Z,61.46
2023-04-18T10:01:41.701Z,61.12
2023-04-18T10:04:10.022Z,60.85
2023-04-18T10:06:39.804Z,61.52
2023-04-18T10:09:08.895Z,61.12
2023-04-18T10:11:36.034Z,61.42
2023-04-18T10:14:06.915Z,60.83
2023-04-18T10:16:34.981Z,61.08
2023-04-18T10:19:26.104Z,60.64
2023-04-18T10:21:57.251Z,60.93
2023-04-18T10:24:45.851Z,61.23
2023-04-18T10:27:12.194Z,61.03
2023-04-18T10:29:49.475Z,61.00
2023-04-18T10:32:17.713Z,61.62
2023-04-18T10:34:45.964Z,61.79
2023-04-18T10:37:13.053Z,61.86
2023-04-18T10:39:56.596Z,61.50
2023-04-18T10:42:48.199Z,61.07
2023-04-18T10:45:22.728Z,60.60
2023-04-18T10:47:49.785Z,59.90
2023-04-18T10:50:17.282Z,59.80
2023-04-18T10:52:43.799Z,59.78
2023-04-18T10:55:24.330Z,59.27
2023-04-18T10:57:51.452Z,59.30
2023-04-18T11:00:20.607Z,58.92
2023-04-18T11:02:52.541Z,59.32
2023-04-18T11:05:24.872Z,59.19
2023-04-18T11:07:51.419Z,59.31
2023-04-18T11:10:20.176Z,58.98
2023-04-18T11:12:47.077Z,58.76
2023-04-18T11:15:22.726Z,59.00
2023-04-18T11:17:58.223Z,58.98
2023-04-18T11:20:24.844Z,58.41
2023-04-18T11:22:55.245Z,58.94
2023-04-18T11:25:41.261Z,58.83
2023-04-18T11:28:07.684Z,58.73
2023-04-18T11:30:41.588Z,58.70
2023-04-18T11:33:12.644Z,58.80
2023-04-18T11:35:43.505Z,59.64
2023-04-18T11:38:12.854Z,60.00
2023-04-18T11:40:39.943Z,59.35
2023-04-18T11:43:07.266Z,59.00
2023-04-18T11:45:33.877Z,58.84
2023-04-18T11:48:01.015Z,58.96
2023-04-18T11:50:27.766Z,58.36
2023-04-18T11:52:55.331Z,58.40
2023-04-18T11:55:25.017Z,58.35
2023-04-18T11:57:56.945Z,58.00
2023-04-18T12:00:38.409Z,57.43
2023-04-18T12:03:15.796Z,57.24
2023-04-18T12:05:42.691Z,57.61
2023-04-18T12:08:13.847Z,57.35
2023-04-18T12:10:47.999Z,57.90
2023-04-18T12:13:14.671Z,58.38
2023-04-18T12:15:44.280Z,57.94
2023-04-18T12:18:12.450Z,58.04
2023-04-18T12:20:45.993Z,58.34
2023-04-18T12:23:35.817Z,58.06
2023-04-18T12:26:03.935Z,58.22
2023-04-18T12:28:31.643Z,58.27
2023-04-18T12:30:58.898Z,57.29
2023-04-18T12:33:25.506Z,57.38
2023-04-18T12:35:52.660Z,57.41
2023-04-18T12:38:23.373Z,56.58
2023-04-18T12:40:51.154Z,56.93
2023-04-18T12:43:18.398Z,56.98
2023-04-18T12:45:46.653Z,57.37
2023-04-18T12:48:13.374Z,56.57
2023-04-18T12:50:39.811Z,56.53
2023-04-18T12:53:06.641Z,56.70
2023-04-18T12:55:33.147Z,56.79
2023-04-18T12:57:59.597Z,56.53
2023-04-18T13:00:28.676Z,56.91
2023-04-18T13:02:55.299Z,57.15
2023-04-18T13:05:23.458Z,57.58
2023-04-18T13:07:58.710Z,57.22
2023-04-18T13:10:31.760Z,57.30
2023-04-18T13:12:58.258Z,57.11
2023-04-18T13:15:24.690Z,57.07
2023-04-18T13:17:51.126Z,56.92
2023-04-18T13:20:17.544Z,56.22
2023-04-18T13:22:45.014Z,56.06
2023-04-18T13:25:11.799Z,56.27
2023-04-18T13:27:41.790Z,56.55
2023-04-18T13:30:10.452Z,56.40
2023-04-18T13:32:37.552Z,56.30
2023-04-18T13:35:04.463Z,55.98
2023-04-18T13:37:31.190Z,55.27
2023-04-18T13:39:57.624Z,55.72
2023-04-18T13:42:23.989Z,55.48
2023-04-18T13:44:50.413Z,54.32
2023-04-18T13:47:16.797Z,52.58
2023-04-18T13:49:43.246Z,51.39
2023-04-18T13:52:09.621Z,51.59
2023-04-18T13:54:37.382Z,51.74
2023-04-18T13:57:03.952Z,50.61
2023-04-18T13:59:33.363Z,50.04
2023-04-18T14:01:59.932Z,50.28
2023-04-18T14:04:27.008Z,49.32
2023-04-18T14:06:53.513Z,49.39
2023-04-18T14:09:19.878Z,49.89
2023-04-18T14:11:46.522Z,49.64
2023-04-18T14:14:12.959Z,50.33
2023-04-18T14:16:39.470Z,50.67
2023-04-18T14:19:06.561Z,51.18
2023-04-18T14:21:32.933Z,51.34
2023-04-18T14:23:59.325Z,52.03
2023-04-18T14:26:25.822Z,52.56
2023-04-18T14:28:52.193Z,53.17
2023-04-18T14:31:18.706Z,53.34
2023-04-18T14:33:45.219Z,53.43
2023-04-18T14:36:11.759Z,53.53
2023-04-18T14:38:38.189Z,53.81
2023-04-18T14:41:05.690Z,53.40
2023-04-18T14:43:32.320Z,52.88
2023-04-18T14:45:59.670Z,51.90
2023-04-18T14:48:26.613Z,52.30
2023-04-18T14:51:00.034Z,52.44
2023-04-18T14:53:27.048Z,51.93
2023-04-18T14:55:53.510Z,51.61
2023-04-18T14:58:20.115Z,50.98
2023-04-18T15:00:46.526Z,50.92
2023-04-18T15:03:13.032Z,50.75
2023-04-18T15:05:43.018Z,51.07
2023-04-18T15:08:11.425Z,50.55
2023-04-18T15:10:38.470Z,50.06
2023-04-18T15:13:04.937Z,50.02
2023-04-18T15:15:34.811Z,50.17
2023-04-18T15:18:02.340Z,50.45
2023-04-18T15:20:31.832Z,50.75
2023-04-18T15:22:58.142Z,50.96
2023-04-18T15:25:26.061Z,51.02
2023-04-18T15:27:53.043Z,50.93
2023-04-18T15:30:19.693Z,51.12
2023-04-18T15:32:46.126Z,51.18
2023-04-18T15:35:12.954Z,50.10
2023-04-18T15:37:39.448Z,50.07
2023-04-18T15:40:09.159Z,49.84
2023-04-18T15:42:35.825Z,50.33
2023-04-18T15:45:04.058Z,50.50
2023-04-18T15:47:33.302Z,50.08
2023-04-18T15:50:00.410Z,49.60
2023-04-18T15:52:26.755Z,49.82
2023-04-18T15:54:54.368Z,49.66
2023-04-18T15:57:21.329Z,49.50
2023-04-18T15:59:47.707Z,49.85
2023-04-18T16:02:14.292Z,49.78
2023-04-18T16:04:40.836Z,49.38
2023-04-18T16:07:08.301Z,48.98
2023-04-18T16:09:34.815Z,49.21
2023-04-18T16:12:03.087Z,48.88
2023-04-18T16:14:30.539Z,48.57
2023-04-18T16:17:00.285Z,48.57
2023-04-18T16:19:26.703Z,47.94
2023-04-18T16:21:53.137Z,48.20
2023-04-18T16:24:19.570Z,48.18
2023-04-18T16:26:46.292Z,49.03
2023-04-18T16:29:12.674Z,49.39
2023-04-18T16:31:39.120Z,49.76
2023-04-18T16:34:05.487Z,50.03
2023-04-18T16:36:34.663Z,49.96
2023-04-18T16:39:01.054Z,50.72
2023-04-18T16:41:27.535Z,50.10
2023-04-18T16:43:54.050Z,50.49
2023-04-18T16:46:20.527Z,50.29
2023-04-18T16:48:46.950Z,50.41
2023-04-18T16:51:13.425Z,50.95
2023-04-18T16:53:39.925Z,51.08
2023-04-18T16:56:07.788Z,50.96
2023-04-18T16:58:34.398Z,50.92
2023-04-18T17:01:03.893Z,50.95
2023-04-18T17:03:30.507Z,51.21
2023-04-18T17:05:57.089Z,50.98
2023-04-18T17:08:25.721Z,50.98
2023-04-18T17:10:52.575Z,51.00
2023-04-18T17:13:19.552Z,51.20
2023-04-18T17:15:46.109Z,51.45
2023-04-18T17:18:12.542Z,51.60
2023-04-18T17:20:38.989Z,51.72
2023-04-18T17:23:05.325Z,51.67
2023-04-18T17:25:31.766Z,51.72
2023-04-18T17:27:58.261Z,52.00
2023-04-18T17:30:24.588Z,52.46
2023-04-18T17:32:51.088Z,52.34
2023-04-18T17:35:17.843Z,52.50
2023-04-18T17:37:44.196Z,52.50
2023-04-18T17:40:11.697Z,52.65
2023-04-18T17:42:38.328Z,53.00
2023-04-18T17:45:09.664Z,53.10
2023-04-18T17:47:36.672Z,53.34
2023-04-18T17:50:06.990Z,53.61
2023-04-18T17:52:33.477Z,53.60
2023-04-18T17:55:01.518Z,53.82
2023-04-18T17:57:30.175Z,53.95
2023-04-18T17:59:56.564Z,54.26
2023-04-18T18:02:28.136Z,54.41
2023-04-18T18:04:54.617Z,54.70
2023-04-18T18:07:21.163Z,55.03
2023-04-18T18:09:47.555Z,54.93
2023-04-18T18:12:14.054Z,54.94
2023-04-18T18:14:40.514Z,55.07
2023-04-18T18:17:07.042Z,55.20
2023-04-18T18:19:36.122Z,55.16
2023-04-18T18:22:02.638Z,55.15
2023-04-18T18:24:29.086Z,55.02
2023-04-18T18:26:56.302Z,55.13
2023-04-18T18:29:22.733Z,55.15
2023-04-18T18:31:49.250Z,55.18
2023-04-18T18:34:15.700Z,55.35
2023-04-18T18:36:42.205Z,55.40
2023-04-18T18:39:08.652Z,55.54
2023-04-18T18:41:35.033Z,55.58
2023-04-18T18:44:01.446Z,55.62
2023-04-18T18:46:27.974Z,55.63
2023-04-18T18:48:54.344Z,55.87
2023-04-18T18:51:20.716Z,55.59
2023-04-18T18:53:47.127Z,55.45
2023-04-18T18:56:13.512Z,55.54
2023-04-18T18:58:40.398Z,55.70
2023-04-18T19:01:06.810Z,55.86
2023-04-18T19:03:34.623Z,55.53
2023-04-18T19:06:03.776Z,55.79
2023-04-18T19:08:30.876Z,55.93
2023-04-18T19:10:57.189Z,56.24
2023-04-18T19:13:24.056Z,56.16
2023-04-18T19:15:51.088Z,56.31
2023-04-18T19:18:19.507Z,56.41
2023-04-18T19:20:46.345Z,56.44
2023-04-18T19:23:12.856Z,56.63
2023-04-18T19:25:39.198Z,56.70
2023-04-18T19:28:05.781Z,56.65
2023-04-18T19:30:32.636Z,57.09
2023-04-18T19:32:59.506Z,56.55
2023-04-18T19:35:25.958Z,56.16
2023-04-18T19:37:52.450Z,56.17
2023-04-18T19:40:19.589Z,55.95
2023-04-18T19:42:46.115Z,56.00
2023-04-18T19:45:13.757Z,55.71
2023-04-18T19:47:42.251Z,55.77
2023-04-18T19:50:08.936Z,55.94
2023-04-18T19:52:35.535Z,55.82
2023-04-18T19:55:02.014Z,55.88
2023-04-18T19:57:29.640Z,55.98
2023-04-18T19:59:56.533Z,55.92
2023-04-18T20:02:23.086Z,55.91
2023-04-18T20:04:49.577Z,55.88
2023-04-18T20:07:16.282Z,56.13
2023-04-18T20:09:42.636Z,56.21
2023-04-18T20:12:08.968Z,56.17
2023-04-18T20:14:35.596Z,56.43
2023-04-18T20:17:01.925Z,56.69
2023-04-18T20:19:29.672Z,56.86
2023-04-18T20:21:56.264Z,57.65
2023-04-18T20:24:23.815Z,58.65
2023-04-18T20:26:51.285Z,59.42
2023-04-18T20:29:17.811Z,59.79
2023-04-18T20:31:44.177Z,60.18
2023-04-18T20:34:10.941Z,60.62
2023-04-18T20:36:42.618Z,60.70
2023-04-18T20:39:09.071Z,60.84
2023-04-18T20:41:36.899Z,61.22
2023-04-18T20:44:06.561Z,61.43
2023-04-18T20:46:33.053Z,61.26
2023-04-18T20:49:00.693Z,61.49
2023-04-18T20:51:28.660Z,61.23
2023-04-18T20:53:55.183Z,61.23
2023-04-18T20:56:22.190Z,61.40
2023-04-18T20:58:48.540Z,61.46
2023-04-18T21:01:14.899Z,61.62
2023-04-18T21:03:41.588Z,61.42
2023-04-18T21:06:08.044Z,61.45
2023-04-18T21:08:39.204Z,61.68
2023-04-18T21:11:06.824Z,61.62
2023-04-18T21:13:34.144Z,61.77
2023-04-18T21:16:03.143Z,61.77
2023-04-18T21:18:30.435Z,62.10
2023-04-18T21:20:56.942Z,61.83
2023-04-18T21:23:24.039Z,61.96
2023-04-18T21:25:50.920Z,61.88
2023-04-18T21:28:19.037Z,62.12
2023-04-18T21:30:46.318Z,62.22
2023-04-18T21:33:13.642Z,62.19
2023-04-18T21:35:40.131Z,62.30
2023-04-18T21:38:06.484Z,62.37
2023-04-18T21:40:34.568Z,62.39
2023-04-18T21:43:01.155Z,62.74
2023-04-18T21:45:27.663Z,62.88
2023-04-18T21:47:54.239Z,62.66
2023-04-18T21:50:20.858Z,62.82
2023-04-18T21:52:47.231Z,62.80
2023-04-18T21:55:13.913Z,62.88
2023-04-18T21:57:40.455Z,62.73
2023-04-18T22:00:10.265Z,62.36
2023-04-18T22:02:37.082Z,62.73
2023-04-18T22:05:03.772Z,62.63
2023-04-18T22:07:30.970Z,62.83
2023-04-18T22:09:59.587Z,62.96
2023-04-18T22:12:26.485Z,63.15
2023-04-18T22:14:52.991Z,63.44
2023-04-18T22:17:20.816Z,63.04
2023-04-18T22:19:49.119Z,63.38
2023-04-18T22:22:15.530Z,63.42
2023-04-18T22:24:41.881Z,63.60
2023-04-18T22:27:08.344Z,63.67
2023-04-18T22:29:34.710Z,64.01
2023-04-18T22:32:01.086Z,63.73
2023-04-18T22:34:27.513Z,63.56
2023-04-18T22:36:53.848Z,64.04
2023-04-18T22:39:20.229Z,64.19
2023-04-18T22:41:46.694Z,64.35
2023-04-18T22:44:13.447Z,64.43
2023-04-18T22:46:40.885Z,64.57
2023-04-18T22:49:07.406Z,64.54
2023-04-18T22:51:34.114Z,64.72
2023-04-18T22:54:00.553Z,64.70
2023-04-18T22:56:26.922Z,64.55
2023-04-18T22:58:53.230Z,64.60
2023-04-18T23:01:19.630Z,64.74
2023-04-18T23:03:46.533Z,64.43
2023-04-18T23:06:13.070Z,64.72
2023-04-18T23:08:39.530Z,64.72
2023-04-18T23:11:05.965Z,64.67
2023-04-18T23:13:32.265Z,64.89
2023-04-18T23:15:58.844Z,64.86
2023-04-18T23:18:25.459Z,65.34
2023-04-18T23:20:51.940Z,65.19
2023-04-18T23:23:18.395Z,65.16
2023-04-18T23:25:44.876Z,65.08
2023-04-18T23:28:13.421Z,65.53
2023-04-18T23:30:39.963Z,65.80
2023-04-18T23:33:06.582Z,65.63
2023-04-18T23:35:33.020Z,66.11
2023-04-18T23:37:59.521Z,66.68
2023-04-18T23:40:25.883Z,66.44
2023-04-18T23:42:52.318Z,66.52
2023-04-18T23:45:18.820Z,66.45
2023-04-18T23:47:45.275Z,66.59
2023-04-18T23:50:12.010Z,66.55
2023-04-18T23:52:38.634Z,66.69
2023-04-18T23:55:05.441Z,66.50
2023-04-18T23:57:31.889Z,66.77
2023-04-18T23:59:58.320Z,66.38
